createdAt,value
2022-09-23T08:14:43.550Z,12.60
2022-09-23T08:17:12.275Z,12.80
2022-09-23T08:19:38.980Z,12.90
2022-09-23T08:22:05.767Z,13.00
2022-09-23T08:24:32.583Z,13.10
2022-09-23T08:26:59.404Z,13.20
2022-09-23T08:29:26.480Z,13.30
2022-09-23T08:31:54.370Z,13.30
2022-09-23T08:34:22.643Z,13.40
2022-09-23T08:36:49.628Z,13.60
2022-09-23T08:39:18.213Z,13.70
2022-09-23T08:41:59.096Z,13.80
2022-09-23T08:44:47.014Z,13.90
2022-09-23T08:47:19.455Z,14.10
2022-09-23T08:49:55.568Z,14.30
2022-09-23T08:52:55.950Z,14.40
2022-09-23T08:55:37.703Z,14.30
2022-09-23T08:58:25.732Z,14.50
2022-09-23T09:01:11.768Z,14.60
2022-09-23T09:03:49.091Z,14.60
2022-09-23T09:06:41.844Z,14.60
2022-09-23T09:09:25.849Z,14.70
2022-09-23T09:12:01.227Z,14.70
2022-09-23T09:14:37.985Z,14.80
2022-09-23T09:17:14.047Z,15.00
2022-09-23T09:19:55.755Z,14.90
2022-09-23T09:22:43.330Z,14.90
2022-09-23T09:25:22.536Z,15.00
2022-09-23T09:27:50.051Z,15.00
2022-09-23T09:30:18.573Z,15.00
2022-09-23T09:33:02.242Z,15.10
2022-09-23T09:35:38.470Z,15.00
2022-09-23T09:38:06.896Z,15.20
2022-09-23T09:40:35.324Z,15.20
2022-09-23T09:43:05.488Z,15.20
2022-09-23T09:45:59.168Z,15.20
2022-09-23T09:48:50.770Z,15.30
2022-09-23T09:51:23.247Z,15.40
2022-09-23T09:53:53.531Z,15.50
2022-09-23T09:56:27.304Z,15.60
2022-09-23T09:59:11.861Z,15.60
2022-09-23T10:01:39.851Z,15.70
2022-09-23T10:04:33.822Z,15.70
2022-09-23T10:07:12.303Z,15.80
2022-09-23T10:09:40.400Z,15.90
2022-09-23T10:12:18.933Z,15.90
2022-09-23T10:14:51.495Z,16.00
2022-09-23T10:17:22.248Z,16.00
2022-09-23T10:19:57.080Z,16.10
2022-09-23T10:22:39.058Z,16.20
2022-09-23T10:25:27.548Z,16.20
2022-09-23T10:27:54.361Z,16.30
2022-09-23T10:30:24.004Z,16.30
2022-09-23T10:32:54.892Z,16.30
2022-09-23T10:35:24.589Z,16.40
2022-09-23T10:38:02.003Z,16.40
2022-09-23T10:40:48.334Z,16.50
2022-09-23T10:43:51.843Z,16.40
2022-09-23T10:46:39.465Z,16.40
2022-09-23T10:49:15.242Z,16.40
2022-09-23T10:52:11.756Z,16.40
2022-09-23T10:54:59.320Z,16.40
2022-09-23T10:57:38.101Z,16.50
2022-09-23T11:00:16.117Z,16.60
2022-09-23T11:03:01.959Z,16.70
2022-09-23T11:05:38.389Z,16.60
2022-09-23T11:08:27.633Z,16.70
2022-09-23T11:11:08.912Z,16.80
2022-09-23T11:13:35.636Z,16.80
2022-09-23T11:16:27.021Z,16.80
2022-09-23T11:19:05.762Z,16.80
2022-09-23T11:22:10.175Z,16.90
2022-09-23T11:24:40.112Z,16.90
2022-09-23T11:27:44.644Z,16.90
2022-09-23T11:30:14.650Z,16.90
2022-09-23T11:32:51.008Z,17.00
2022-09-23T11:35:49.168Z,17.00
2022-09-23T11:38:25.882Z,17.10
2022-09-23T11:40:59.396Z,17.10
2022-09-23T11:43:33.520Z,17.20
2022-09-23T11:46:40.404Z,17.20
2022-09-23T11:49:28.028Z,17.30
2022-09-23T11:52:13.407Z,17.40
2022-09-23T11:55:03.370Z,17.40
2022-09-23T11:57:48.101Z,17.50
2022-09-23T12:00:24.123Z,17.60
2022-09-23T12:03:05.619Z,17.60
2022-09-23T12:05:41.733Z,17.70
2022-09-23T12:08:29.391Z,17.70
2022-09-23T12:11:16.119Z,17.60
2022-09-23T12:14:11.747Z,17.60
2022-09-23T12:16:59.634Z,17.70
2022-09-23T12:19:55.489Z,17.60
2022-09-23T12:22:48.327Z,17.60
2022-09-23T12:25:35.799Z,17.70
2022-09-23T12:28:14.233Z,17.70
2022-09-23T12:30:42.062Z,17.60
2022-09-23T12:33:27.595Z,17.60
2022-09-23T12:36:01.972Z,17.70
2022-09-23T12:38:47.647Z,17.70
2022-09-23T12:41:35.351Z,17.70
2022-09-23T12:44:12.479Z,17.70
2022-09-23T12:46:40.967Z,17.70
2022-09-23T12:49:30.504Z,17.80
2022-09-23T12:52:19.282Z,17.70
2022-09-23T12:54:50.759Z,17.70
2022-09-23T12:57:35.702Z,17.70
2022-09-23T13:00:12.681Z,17.60
2022-09-23T13:03:11.733Z,17.60
2022-09-23T13:06:27.800Z,17.70
2022-09-23T13:08:56.559Z,17.70
2022-09-23T13:11:29.497Z,17.60
2022-09-23T13:14:01.962Z,17.70
2022-09-23T13:16:41.624Z,17.80
2022-09-23T13:19:27.215Z,17.80
2022-09-23T13:21:53.886Z,17.80
2022-09-23T13:24:24.435Z,17.80
2022-09-23T13:27:04.673Z,17.90
2022-09-23T13:29:55.284Z,17.70
2022-09-23T13:32:28.798Z,17.70
2022-09-23T13:35:07.132Z,17.70
2022-09-23T13:37:47.881Z,17.70
2022-09-23T13:40:20.069Z,17.70
2022-09-23T13:43:02.105Z,17.60
2022-09-23T13:45:34.141Z,17.60
2022-09-23T13:48:10.534Z,17.70
2022-09-23T13:50:40.832Z,17.60
2022-09-23T13:53:16.164Z,17.70
2022-09-23T13:55:42.900Z,17.70
2022-09-23T13:58:23.999Z,17.70
2022-09-23T14:00:51.662Z,17.70
2022-09-23T14:03:24.271Z,17.80
2022-09-23T14:05:52.788Z,17.70
2022-09-23T14:08:20.853Z,17.70
2022-09-23T14:10:48.628Z,17.70
2022-09-23T14:13:26.035Z,17.70
2022-09-23T14:15:59.608Z,17.60
2022-09-23T14:18:33.621Z,17.70
2022-09-23T14:21:00.473Z,17.60
2022-09-23T14:23:27.706Z,17.60
2022-09-23T14:25:55.563Z,17.60
2022-09-23T14:28:25.882Z,17.70
2022-09-23T14:30:57.438Z,17.60
2022-09-23T14:33:34.163Z,17.60
2022-09-23T14:36:09.452Z,17.60
2022-09-23T14:38:51.454Z,17.60
2022-09-23T14:41:24.064Z,17.60
2022-09-23T14:44:02.076Z,17.50
2022-09-23T14:46:35.039Z,17.50
2022-09-23T14:49:28.067Z,17.50
2022-09-23T14:52:03.365Z,17.50
2022-09-23T14:54:41.544Z,17.50
2022-09-23T14:57:22.637Z,17.50
2022-09-23T14:59:59.065Z,17.40
2022-09-23T15:02:33.160Z,17.40
2022-09-23T15:05:22.787Z,17.40
2022-09-23T15:07:52.231Z,17.40
2022-09-23T15:10:34.003Z,17.30
2022-09-23T15:13:16.767Z,17.30
2022-09-23T15:15:45.421Z,17.30
2022-09-23T15:18:22.306Z,17.30
2022-09-23T15:20:54.483Z,17.30
2022-09-23T15:23:46.162Z,17.30
2022-09-23T15:26:20.512Z,17.20
2022-09-23T15:28:48.592Z,17.20
2022-09-23T15:31:17.764Z,17.10
2022-09-23T15:33:48.819Z,17.10
2022-09-23T15:36:18.876Z,17.00
2022-09-23T15:38:47.928Z,17.00
2022-09-23T15:41:17.801Z,16.90
2022-09-23T15:43:44.684Z,16.90
2022-09-23T15:46:20.957Z,16.90
2022-09-23T15:49:00.042Z,16.90
2022-09-23T15:51:29.429Z,16.80
2022-09-23T15:53:59.336Z,16.80
2022-09-23T15:56:27.759Z,16.80
2022-09-23T15:58:54.530Z,16.70
2022-09-23T16:01:30.353Z,16.70
2022-09-23T16:03:57.478Z,16.50
2022-09-23T16:06:24.398Z,16.50
2022-09-23T16:08:52.235Z,16.50
2022-09-23T16:11:24.539Z,16.40
2022-09-23T16:13:51.828Z,16.40
2022-09-23T16:16:22.172Z,16.20
2022-09-23T16:18:53.322Z,16.20
2022-09-23T16:21:23.920Z,16.20
2022-09-23T16:23:51.491Z,16.20
2022-09-23T16:26:27.731Z,16.10
2022-09-23T16:28:56.268Z,16.00
2022-09-23T16:31:31.304Z,16.00
2022-09-23T16:34:02.746Z,16.00
2022-09-23T16:36:33.614Z,15.90
2022-09-23T16:39:04.516Z,15.80
2022-09-23T16:41:35.057Z,15.70
2022-09-23T16:44:05.680Z,15.70
2022-09-23T16:46:33.882Z,15.60
2022-09-23T16:49:00.962Z,15.60
2022-09-23T16:51:30.432Z,15.60
2022-09-23T16:53:58.382Z,15.50
2022-09-23T16:56:28.967Z,15.40
2022-09-23T16:58:56.337Z,15.40
2022-09-23T17:01:47.046Z,15.30
2022-09-23T17:04:15.424Z,15.30
2022-09-23T17:06:43.879Z,15.20
2022-09-23T17:09:12.000Z,15.10
2022-09-23T17:11:38.836Z,15.10
2022-09-23T17:14:05.955Z,15.00
2022-09-23T17:16:34.536Z,15.00
2022-09-23T17:19:07.404Z,14.90
2022-09-23T17:21:35.930Z,14.90
2022-09-23T17:24:02.817Z,14.90
2022-09-23T17:26:29.581Z,14.80
2022-09-23T17:28:58.883Z,14.80
2022-09-23T17:31:26.296Z,14.70
2022-09-23T17:33:53.568Z,14.70
2022-09-23T17:36:21.103Z,14.70
2022-09-23T17:38:49.129Z,14.70
2022-09-23T17:41:17.716Z,14.60
2022-09-23T17:43:45.506Z,14.60
2022-09-23T17:46:18.610Z,14.50
2022-09-23T17:48:47.002Z,14.50
2022-09-23T17:51:21.936Z,14.50
2022-09-23T17:53:49.784Z,14.50
2022-09-23T17:56:17.805Z,14.50
2022-09-23T17:58:46.062Z,14.40
2022-09-23T18:01:16.447Z,14.30
2022-09-23T18:03:43.680Z,14.30
2022-09-23T18:06:19.184Z,14.30
2022-09-23T18:08:47.488Z,14.30
2022-09-23T18:11:15.527Z,14.20
2022-09-23T18:13:46.515Z,14.20
2022-09-23T18:16:13.589Z,14.10
2022-09-23T18:18:40.586Z,14.20
2022-09-23T18:21:07.801Z,14.10
2022-09-23T18:23:43.509Z,14.10
2022-09-23T18:26:18.385Z,14.00
2022-09-23T18:28:45.317Z,13.90
2022-09-23T18:31:12.555Z,14.00
2022-09-23T18:33:39.415Z,13.90
2022-09-23T18:36:07.523Z,13.90
2022-09-23T18:38:35.218Z,13.90
2022-09-23T18:41:02.000Z,13.90
2022-09-23T18:43:37.235Z,13.80
2022-09-23T18:46:17.611Z,13.80
2022-09-23T18:49:03.560Z,13.90
2022-09-23T18:51:31.966Z,13.80
2022-09-23T18:54:00.647Z,13.80
2022-09-23T18:56:31.020Z,13.80
2022-09-23T18:58:57.938Z,13.70
2022-09-23T19:01:25.179Z,13.80
2022-09-23T19:03:56.372Z,13.80
2022-09-23T19:06:24.023Z,13.80
2022-09-23T19:08:52.965Z,13.70
2022-09-23T19:11:20.822Z,13.70
2022-09-23T19:13:52.289Z,13.70
2022-09-23T19:16:19.002Z,13.70
2022-09-23T19:18:46.706Z,13.70
2022-09-23T19:21:14.498Z,13.60
2022-09-23T19:23:49.063Z,13.70
2022-09-23T19:26:19.355Z,13.60
2022-09-23T19:28:56.066Z,13.70
2022-09-23T19:31:33.344Z,13.60
2022-09-23T19:34:10.756Z,13.60
2022-09-23T19:36:40.583Z,13.60
2022-09-23T19:39:15.201Z,13.60
2022-09-23T19:41:41.948Z,13.60
2022-09-23T19:44:09.001Z,13.60
2022-09-23T19:46:37.961Z,13.60
2022-09-23T19:49:06.725Z,13.70
2022-09-23T19:51:34.479Z,13.70
2022-09-23T19:54:02.366Z,13.60
2022-09-23T19:56:30.955Z,13.60
2022-09-23T19:58:58.379Z,13.70
2022-09-23T20:01:27.198Z,13.50
2022-09-23T20:03:54.442Z,13.50
2022-09-23T20:06:21.328Z,13.50
2022-09-23T20:08:49.175Z,13.50
2022-09-23T20:11:19.124Z,13.50
2022-09-23T20:13:47.806Z,13.60
2022-09-23T20:16:17.398Z,13.50
2022-09-23T20:18:45.233Z,13.50
2022-09-23T20:21:14.848Z,13.60
2022-09-23T20:23:42.599Z,13.50
2022-09-23T20:26:35.884Z,13.50
2022-09-23T20:29:02.799Z,13.50
2022-09-23T20:31:30.075Z,13.50
2022-09-23T20:33:58.669Z,13.50
2022-09-23T20:36:29.184Z,13.60
2022-09-23T20:38:59.934Z,13.60
2022-09-23T20:41:31.311Z,13.60
2022-09-23T20:44:01.370Z,13.50
2022-09-23T20:46:29.411Z,13.50
2022-09-23T20:48:56.868Z,13.50
2022-09-23T20:51:24.877Z,13.60
2022-09-23T20:53:52.980Z,13.50
2022-09-23T20:56:23.755Z,13.50
2022-09-23T20:58:52.635Z,13.50
2022-09-23T21:01:20.452Z,13.40
2022-09-23T21:03:49.648Z,13.40
2022-09-23T21:06:18.988Z,13.40
2022-09-23T21:08:49.173Z,13.40
2022-09-23T21:11:16.826Z,13.40
2022-09-23T21:13:51.337Z,13.40
2022-09-23T21:16:22.792Z,13.40
2022-09-23T21:18:51.415Z,13.40
2022-09-23T21:21:22.431Z,13.40
2022-09-23T21:23:50.387Z,13.40
2022-09-23T21:26:23.155Z,13.40
2022-09-23T21:28:51.769Z,13.50
2022-09-23T21:31:25.401Z,13.40
2022-09-23T21:33:57.222Z,13.40
2022-09-23T21:36:24.727Z,13.40
2022-09-23T21:38:52.222Z,13.30
2022-09-23T21:41:19.896Z,13.40
2022-09-23T21:43:46.749Z,13.30
2022-09-23T21:46:20.815Z,13.30
2022-09-23T21:48:50.635Z,13.30
2022-09-23T21:51:20.595Z,13.20
2022-09-23T21:53:49.888Z,13.20
2022-09-23T21:56:21.316Z,13.20
2022-09-23T21:58:48.649Z,13.10
2022-09-23T22:01:22.463Z,13.20
2022-09-23T22:03:51.978Z,13.20
2022-09-23T22:06:27.599Z,13.10
2022-09-23T22:09:08.865Z,13.10
2022-09-23T22:11:55.991Z,13.10
2022-09-23T22:14:26.497Z,13.10
2022-09-23T22:17:01.328Z,13.10
2022-09-23T22:19:35.811Z,13.00
2022-09-23T22:22:07.860Z,13.00
2022-09-23T22:24:34.729Z,13.10
2022-09-23T22:27:01.737Z,13.10
2022-09-23T22:29:47.331Z,13.10
2022-09-23T22:32:32.757Z,13.00
2022-09-23T22:34:59.504Z,13.00
2022-09-23T22:37:34.661Z,13.00
2022-09-23T22:40:03.130Z,13.10
2022-09-23T22:42:30.965Z,13.00
2022-09-23T22:44:57.766Z,12.90
2022-09-23T22:47:25.116Z,13.00
2022-09-23T22:49:55.961Z,13.00
2022-09-23T22:52:24.497Z,13.00
2022-09-23T22:54:52.693Z,12.80
2022-09-23T22:57:19.764Z,12.90
2022-09-23T22:59:50.261Z,12.80
2022-09-23T23:02:18.886Z,12.80
2022-09-23T23:04:49.772Z,12.80
2022-09-23T23:07:21.228Z,12.90
2022-09-23T23:09:52.321Z,12.80
2022-09-23T23:12:20.527Z,12.80
2022-09-23T23:14:48.155Z,12.80
2022-09-23T23:17:14.920Z,12.80
2022-09-23T23:19:41.806Z,12.80
2022-09-23T23:22:08.611Z,12.80
2022-09-23T23:24:35.332Z,12.80
2022-09-23T23:27:02.075Z,12.80
2022-09-23T23:29:28.992Z,12.70
2022-09-23T23:31:55.819Z,12.80
2022-09-23T23:34:23.076Z,12.80
2022-09-23T23:36:56.374Z,12.70
2022-09-23T23:39:24.822Z,12.70
2022-09-23T23:41:56.997Z,12.80
2022-09-23T23:44:25.125Z,12.80
2022-09-23T23:46:52.867Z,12.80
2022-09-23T23:49:19.928Z,12.70
2022-09-23T23:51:47.939Z,12.70
2022-09-23T23:54:15.387Z,12.80
2022-09-23T23:56:42.296Z,12.80
2022-09-23T23:59:09.011Z,12.80
